Time;durP1;ratioP1;P1;durP2;ratioP2;P2;SDS_P1;SDS_P2;PMS_P1;PMS_P2;Temp;Humidity;BMP_temperature;BMP_pressure;BME280_temperature;BME280_humidity;BME280_pressure;Samples;Min_cycle;Max_cycle;Signal;HPM_P1;HPM_P2
2021/05/16 00:00:25;;;;;;;7.07;3.35;;;9.80;99.90;;;;;;5079025;28;20024;-66
2021/05/16 00:02:51;;;;;;;6.75;3.85;;;9.80;99.90;;;;;;5079363;28;20079;-66
2021/05/16 00:05:18;;;;;;;8.73;3.75;;;9.80;99.90;;;;;;5078123;28;20449;-66
2021/05/16 00:07:44;;;;;;;8.07;4.15;;;9.80;99.90;;;;;;5067793;28;20033;-66
2021/05/16 00:10:12;;;;;;;7.18;3.40;;;9.80;99.90;;;;;;5080136;28;20043;-65
2021/05/16 00:12:38;;;;;;;6.43;3.22;;;9.80;99.90;;;;;;5081741;28;20039;-66
2021/05/16 00:15:06;;;;;;;7.63;3.90;;;9.80;99.90;;;;;;5076957;28;20032;-66
2021/05/16 00:17:34;;;;;;;6.63;4.18;;;9.70;99.90;;;;;;5079827;28;20024;-66
2021/05/16 00:20:04;;;;;;;7.75;3.95;;;9.70;99.90;;;;;;5077919;28;20024;-66
2021/05/16 00:22:29;;;;;;;4.90;3.53;;;9.70;99.90;;;;;;5078068;28;20036;-66
2021/05/16 00:24:57;;;;;;;7.22;3.60;;;9.70;99.90;;;;;;5079489;28;20512;-66
2021/05/16 00:27:25;;;;;;;8.93;4.38;;;9.60;99.90;;;;;;5077736;28;20029;-66
2021/05/16 00:29:53;;;;;;;7.03;4.03;;;9.60;99.90;;;;;;5079148;28;20031;-66
2021/05/16 00:32:18;;;;;;;6.78;3.33;;;9.60;99.90;;;;;;5078895;28;20078;-66
2021/05/16 00:34:46;;;;;;;7.90;3.80;;;9.60;99.90;;;;;;5078191;28;20048;-65
2021/05/16 00:37:16;;;;;;;9.40;4.43;;;9.50;99.90;;;;;;5074800;28;20121;-66
2021/05/16 00:39:44;;;;;;;10.70;4.50;;;9.50;99.90;;;;;;5069505;28;20164;-65
2021/05/16 00:42:10;;;;;;;7.78;4.05;;;9.50;99.90;;;;;;5067589;28;20024;-65
2021/05/16 00:44:38;;;;;;;6.40;4.53;;;9.50;99.90;;;;;;5069578;28;20458;-66
2021/05/16 00:47:03;;;;;;;6.18;3.53;;;9.50;99.90;;;;;;5077352;28;20020;-66
2021/05/16 00:49:31;;;;;;;8.05;4.28;;;9.50;99.90;;;;;;5080565;28;20534;-66
2021/05/16 00:51:59;;;;;;;7.75;4.30;;;9.40;99.90;;;;;;5073564;28;20028;-66
2021/05/16 00:54:29;;;;;;;6.95;3.97;;;9.40;99.90;;;;;;5068383;28;20024;-66
2021/05/16 00:56:55;;;;;;;8.15;4.70;;;9.40;99.90;;;;;;5069088;28;20031;-66
2021/05/16 00:59:23;;;;;;;6.47;4.35;;;9.40;99.90;;;;;;5070645;28;20457;-66
2021/05/16 01:01:53;;;;;;;11.95;4.57;;;9.40;99.90;;;;;;5068374;28;20040;-65
2021/05/16 01:04:18;;;;;;;7.60;4.10;;;9.30;99.90;;;;;;5067430;28;20043;-66
2021/05/16 01:06:45;;;;;;;12.32;4.90;;;9.30;99.90;;;;;;5067565;28;20501;-66
2021/05/16 01:09:13;;;;;;;6.72;4.03;;;9.30;99.90;;;;;;5067440;28;20169;-66
2021/05/16 01:11:44;;;;;;;11.07;4.88;;;9.30;99.90;;;;;;5068671;28;20028;-66
2021/05/16 01:14:21;;;;;;;8.03;5.00;;;9.30;99.90;;;;;;5068034;28;20529;-66
2021/05/16 01:16:47;;;;;;;9.18;5.18;;;9.20;99.90;;;;;;5067394;28;20039;-67
2021/05/16 01:19:12;;;;;;;9.98;5.18;;;9.20;99.90;;;;;;5075627;28;20024;-66
2021/05/16 01:21:41;;;;;;;10.18;5.43;;;9.20;99.90;;;;;;5056075;28;20070;-64
2021/05/16 01:24:17;;;;;;;9.82;5.72;;;9.20;99.90;;;;;;5067213;28;20043;-66
2021/05/16 01:26:44;;;;;;;10.27;6.68;;;9.20;99.90;;;;;;5067546;28;20032;-67
2021/05/16 01:29:11;;;;;;;12.32;6.93;;;9.20;99.90;;;;;;5069692;28;20455;-66
2021/05/16 01:31:36;;;;;;;14.13;7.03;;;9.20;99.90;;;;;;5069175;28;20041;-66
2021/05/16 01:34:04;;;;;;;16.67;8.23;;;9.20;99.90;;;;;;5058248;28;20093;-66
2021/05/16 01:36:33;;;;;;;14.80;8.20;;;9.30;99.90;;;;;;5073834;28;20067;-66
2021/05/16 01:38:58;;;;;;;10.45;6.57;;;9.30;99.90;;;;;;5077542;28;20027;-66
2021/05/16 01:41:26;;;;;;;14.13;8.70;;;9.30;99.90;;;;;;5078468;28;20032;-65
2021/05/16 01:43:56;;;;;;;10.70;7.30;;;9.30;99.90;;;;;;5076522;28;20164;-65
2021/05/16 01:46:28;;;;;;;11.15;6.70;;;9.40;99.90;;;;;;5068202;28;20032;-66
2021/05/16 01:48:59;;;;;;;12.57;7.35;;;9.50;99.90;;;;;;5066649;28;20089;-65
2021/05/16 01:51:24;;;;;;;14.27;7.97;;;9.50;99.90;;;;;;5069033;28;20779;-66
2021/05/16 01:53:50;;;;;;;11.23;7.22;;;9.50;99.90;;;;;;5064816;28;20036;-66
2021/05/16 01:56:28;;;;;;;12.25;6.95;;;9.60;99.90;;;;;;5072773;28;20029;-66
2021/05/16 01:58:56;;;;;;;11.95;7.15;;;9.60;99.90;;;;;;5079102;28;20088;-65
2021/05/16 02:01:22;;;;;;;11.50;7.32;;;9.60;99.90;;;;;;5070323;28;20028;-66
2021/05/16 02:03:48;;;;;;;11.90;7.20;;;9.60;99.90;;;;;;5067082;28;20028;-66
2021/05/16 02:06:16;;;;;;;14.40;8.07;;;9.60;99.90;;;;;;5073166;28;20029;-66
2021/05/16 02:08:42;;;;;;;12.90;7.18;;;9.70;99.90;;;;;;5070083;28;20056;-65
2021/05/16 02:11:10;;;;;;;13.25;7.38;;;9.70;99.90;;;;;;5053430;28;20450;-66
2021/05/16 02:13:40;;;;;;;11.38;7.30;;;9.60;99.90;;;;;;5072693;28;20048;-66
2021/05/16 02:16:10;;;;;;;11.30;7.15;;;9.70;99.90;;;;;;5076534;28;20032;-66
2021/05/16 02:18:38;;;;;;;13.60;7.63;;;9.70;99.90;;;;;;5071503;28;20029;-66
2021/05/16 02:21:09;;;;;;;12.57;7.75;;;9.70;99.90;;;;;;5073340;28;20035;-65
2021/05/16 02:23:38;;;;;;;14.00;7.30;;;9.70;99.90;;;;;;5072792;28;20107;-67
2021/05/16 02:26:08;;;;;;;12.70;7.10;;;9.70;99.90;;;;;;5071433;28;20078;-66
2021/05/16 02:28:34;;;;;;;14.75;7.38;;;9.70;99.90;;;;;;5087013;28;20051;-66
2021/05/16 02:31:04;;;;;;;12.02;7.70;;;9.70;99.90;;;;;;5070775;28;20032;-66
2021/05/16 02:33:30;;;;;;;11.48;6.97;;;9.70;99.90;;;;;;5069590;28;20126;-66
2021/05/16 02:35:58;;;;;;;13.85;8.75;;;9.80;99.90;;;;;;5071476;28;20112;-65
2021/05/16 02:38:23;;;;;;;12.93;7.47;;;9.70;99.90;;;;;;5071690;28;20473;-66
2021/05/16 02:40:55;;;;;;;12.38;6.45;;;9.80;99.90;;;;;;5071310;28;20028;-66
2021/05/16 02:43:21;;;;;;;13.60;8.00;;;9.80;99.90;;;;;;5073002;28;20039;-67
2021/05/16 02:45:47;;;;;;;15.05;8.00;;;9.80;99.90;;;;;;5059269;28;20567;-66
2021/05/16 02:48:14;;;;;;;14.50;8.35;;;9.80;99.90;;;;;;5070750;28;20229;-67
2021/05/16 02:50:40;;;;;;;15.63;7.82;;;9.80;99.90;;;;;;5071844;28;20136;-66
2021/05/16 02:53:06;;;;;;;13.18;9.18;;;9.80;99.90;;;;;;5084515;28;20028;-66
2021/05/16 02:55:34;;;;;;;14.68;9.55;;;9.80;99.90;;;;;;5072104;28;20615;-66
2021/05/16 02:58:01;;;;;;;17.30;10.88;;;9.80;99.90;;;;;;5069201;28;20089;-66
2021/05/16 03:00:27;;;;;;;17.55;12.45;;;9.80;99.90;;;;;;5072269;28;20033;-66
2021/05/16 03:02:53;;;;;;;19.33;12.60;;;9.80;99.90;;;;;;5071367;28;20094;-66
2021/05/16 03:05:21;;;;;;;16.42;11.85;;;9.80;99.90;;;;;;5053760;28;20025;-66
2021/05/16 03:07:46;;;;;;;19.33;12.80;;;9.90;99.90;;;;;;5072965;28;20021;-64
2021/05/16 03:10:12;;;;;;;20.10;12.38;;;9.90;99.90;;;;;;5070988;28;20035;-66
2021/05/16 03:12:38;;;;;;;20.38;12.20;;;9.90;99.90;;;;;;5070808;28;20070;-66
2021/05/16 03:15:09;;;;;;;21.55;12.93;;;9.90;99.90;;;;;;5070759;28;20154;-65
2021/05/16 03:17:37;;;;;;;21.83;13.30;;;9.90;99.90;;;;;;5061918;28;20033;-65
2021/05/16 03:20:03;;;;;;;18.17;12.40;;;9.80;99.90;;;;;;5068473;28;20067;-65
2021/05/16 03:22:29;;;;;;;19.40;11.82;;;9.80;99.90;;;;;;5071405;28;20044;-66
2021/05/16 03:24:59;;;;;;;17.35;11.75;;;9.80;99.90;;;;;;5052744;28;20055;-65
2021/05/16 03:27:27;;;;;;;18.20;11.88;;;9.80;99.90;;;;;;5069837;28;20024;-66
2021/05/16 03:29:53;;;;;;;16.63;11.80;;;9.80;99.90;;;;;;5076824;28;20111;-66
2021/05/16 03:32:19;;;;;;;19.08;11.90;;;9.80;99.90;;;;;;5078741;28;20175;-66
2021/05/16 03:34:44;;;;;;;20.48;12.60;;;9.80;99.90;;;;;;5075339;28;20669;-65
2021/05/16 03:37:10;;;;;;;19.83;13.07;;;9.80;99.90;;;;;;5051427;28;20044;-66
2021/05/16 03:39:40;;;;;;;17.85;12.05;;;9.80;99.90;;;;;;5072776;28;20032;-66
2021/05/16 03:42:08;;;;;;;17.75;12.40;;;9.80;99.90;;;;;;5069943;28;20067;-66
2021/05/16 03:44:36;;;;;;;17.40;12.68;;;9.80;99.90;;;;;;5068792;28;20036;-66
2021/05/16 03:47:04;;;;;;;16.40;11.63;;;9.80;99.90;;;;;;5086685;28;20028;-66
2021/05/16 03:49:32;;;;;;;18.73;11.93;;;9.80;99.90;;;;;;5069228;28;20020;-66
2021/05/16 03:51:57;;;;;;;21.90;12.30;;;9.80;99.90;;;;;;5071395;28;20052;-66
2021/05/16 03:54:23;;;;;;;19.50;12.48;;;9.70;99.90;;;;;;5068353;28;20253;-65
2021/05/16 03:56:49;;;;;;;17.83;12.35;;;9.70;99.90;;;;;;5067429;28;20477;-66
2021/05/16 03:59:14;;;;;;;16.90;10.95;;;9.70;99.90;;;;;;5068444;28;20028;-66
2021/05/16 04:01:40;;;;;;;22.88;12.85;;;9.60;99.90;;;;;;5070144;28;20070;-66
2021/05/16 04:04:08;;;;;;;14.75;10.80;;;9.60;99.90;;;;;;5070057;28;20062;-66
2021/05/16 04:06:39;;;;;;;17.65;12.02;;;9.70;99.90;;;;;;5057173;28;20548;-66
2021/05/16 04:09:07;;;;;;;19.08;11.10;;;9.60;99.90;;;;;;5070697;28;20029;-66
2021/05/16 04:11:36;;;;;;;15.77;10.48;;;9.60;99.90;;;;;;5068035;28;20034;-66
2021/05/16 04:14:04;;;;;;;17.48;11.43;;;9.70;99.90;;;;;;5070550;28;20028;-66
2021/05/16 04:16:30;;;;;;;15.93;10.88;;;9.70;99.90;;;;;;5071751;28;20028;-66
2021/05/16 04:19:01;;;;;;;20.00;11.25;;;9.70;99.90;;;;;;5055301;28;20046;-66
2021/05/16 04:21:26;;;;;;;17.50;11.05;;;9.70;99.90;;;;;;5069703;28;20028;-65
2021/05/16 04:23:52;;;;;;;15.57;9.95;;;9.60;99.90;;;;;;5069516;28;20846;-66
2021/05/16 04:26:20;;;;;;;17.08;10.27;;;9.70;99.90;;;;;;5068944;28;20040;-66
2021/05/16 04:28:46;;;;;;;16.02;10.23;;;9.70;99.90;;;;;;5085045;28;20062;-65
2021/05/16 04:31:16;;;;;;;18.23;10.77;;;9.70;99.90;;;;;;5067030;28;20173;-66
2021/05/16 04:33:42;;;;;;;14.25;8.75;;;9.70;99.90;;;;;;5067429;28;20032;-66
2021/05/16 04:36:09;;;;;;;16.60;9.77;;;9.70;99.90;;;;;;5069126;28;20078;-66
2021/05/16 04:38:44;;;;;;;13.82;9.95;;;9.70;99.90;;;;;;5067554;28;20060;-65
2021/05/16 04:41:15;;;;;;;15.25;9.60;;;9.70;99.90;;;;;;5068373;28;20532;-66
2021/05/16 04:43:43;;;;;;;13.48;10.38;;;9.80;99.90;;;;;;5067500;28;20155;-66
2021/05/16 04:46:11;;;;;;;21.27;11.70;;;9.80;99.90;;;;;;5066983;28;20051;-66
2021/05/16 04:48:42;;;;;;;15.93;11.65;;;9.80;99.90;;;;;;5069548;28;20047;-66
2021/05/16 04:51:10;;;;;;;16.95;11.55;;;9.80;99.90;;;;;;5066889;28;20172;-66
2021/05/16 04:53:37;;;;;;;18.65;12.18;;;9.70;99.90;;;;;;5052393;28;20028;-66
2021/05/16 04:56:03;;;;;;;21.48;13.32;;;9.80;99.90;;;;;;5068685;28;20028;-66
2021/05/16 04:58:29;;;;;;;20.52;12.85;;;9.80;99.90;;;;;;5069390;28;20129;-66
2021/05/16 05:00:55;;;;;;;15.70;11.85;;;9.90;99.90;;;;;;5069474;28;20444;-66
2021/05/16 05:03:22;;;;;;;15.40;11.35;;;9.80;99.90;;;;;;5067428;28;20101;-66
2021/05/16 05:05:57;;;;;;;15.27;11.18;;;9.80;99.90;;;;;;5067662;28;20107;-67
2021/05/16 05:08:25;;;;;;;17.27;11.60;;;9.90;99.90;;;;;;5051037;28;21934;-66
2021/05/16 05:10:51;;;;;;;19.73;12.80;;;9.90;99.90;;;;;;5068626;28;20024;-66
2021/05/16 05:13:17;;;;;;;15.70;11.98;;;9.90;99.90;;;;;;5069067;28;20102;-65
2021/05/16 05:15:45;;;;;;;17.83;11.27;;;9.90;99.90;;;;;;5069033;28;20028;-66
2021/05/16 05:18:10;;;;;;;17.27;11.60;;;9.90;99.90;;;;;;5069264;28;22039;-66
2021/05/16 05:20:38;;;;;;;13.95;10.60;;;10.00;99.90;;;;;;5067518;28;20040;-66
2021/05/16 05:23:04;;;;;;;15.15;11.25;;;10.00;99.90;;;;;;5068271;28;20480;-66
2021/05/16 05:25:29;;;;;;;14.20;10.88;;;10.00;99.90;;;;;;5068027;28;20025;-65
2021/05/16 05:27:58;;;;;;;15.77;10.93;;;10.00;99.90;;;;;;5068177;28;20460;-66
2021/05/16 05:30:29;;;;;;;15.60;11.30;;;10.00;99.90;;;;;;5069073;28;20531;-66
2021/05/16 05:32:57;;;;;;;19.45;12.50;;;10.10;99.90;;;;;;5067923;28;20043;-65
2021/05/16 05:35:22;;;;;;;17.33;12.10;;;10.10;99.90;;;;;;5071249;28;20579;-66
2021/05/16 05:37:48;;;;;;;15.93;11.20;;;10.10;99.90;;;;;;5068950;28;20033;-66
2021/05/16 05:40:16;;;;;;;16.30;10.77;;;10.10;99.90;;;;;;5072025;28;20118;-66
2021/05/16 05:42:44;;;;;;;18.70;12.10;;;10.10;99.90;;;;;;5072941;28;20050;-66
2021/05/16 05:45:10;;;;;;;15.75;10.32;;;10.20;99.90;;;;;;5055527;28;20036;-70
2021/05/16 05:47:36;;;;;;;15.88;10.18;;;10.20;99.90;;;;;;5073602;28;20024;-66
2021/05/16 05:50:05;;;;;;;14.30;10.48;;;10.20;99.90;;;;;;5087297;28;20020;-66
2021/05/16 05:52:31;;;;;;;14.77;9.07;;;10.30;99.90;;;;;;5069537;28;20040;-66
2021/05/16 05:54:59;;;;;;;13.43;9.02;;;10.30;99.90;;;;;;5070160;28;21458;-66
2021/05/16 05:57:24;;;;;;;13.75;9.68;;;10.40;99.90;;;;;;5070817;28;20110;-66
2021/05/16 05:59:50;;;;;;;17.25;11.48;;;10.40;99.90;;;;;;5072186;28;20836;-65
2021/05/16 06:02:15;;;;;;;13.90;9.82;;;10.40;99.90;;;;;;5073078;28;20040;-66
2021/05/16 06:04:46;;;;;;;15.70;10.93;;;10.30;99.90;;;;;;5072004;28;20052;-66
2021/05/16 06:07:11;;;;;;;14.45;10.90;;;10.30;99.90;;;;;;5072287;28;21858;-66
2021/05/16 06:09:42;;;;;;;17.45;11.05;;;10.30;99.90;;;;;;5053613;28;20029;-66
2021/05/16 06:12:09;;;;;;;15.05;11.15;;;10.30;99.90;;;;;;5072814;28;20112;-66
2021/05/16 06:14:39;;;;;;;14.75;11.50;;;10.30;99.90;;;;;;5073060;28;20028;-66
2021/05/16 06:17:04;;;;;;;16.02;11.30;;;10.30;99.90;;;;;;5077642;28;20021;-66
2021/05/16 06:19:30;;;;;;;14.98;10.90;;;10.40;99.90;;;;;;5072164;28;20043;-66
2021/05/16 06:21:56;;;;;;;20.23;13.25;;;10.40;99.90;;;;;;5069956;28;20666;-65
2021/05/16 06:24:24;;;;;;;16.30;11.50;;;10.40;99.90;;;;;;5071491;28;20066;-66
2021/05/16 06:26:49;;;;;;;14.20;10.85;;;10.30;99.90;;;;;;5071170;28;20085;-66
2021/05/16 06:29:17;;;;;;;17.42;11.95;;;10.30;99.90;;;;;;5071899;28;20028;-66
2021/05/16 06:31:43;;;;;;;16.17;12.15;;;10.30;99.90;;;;;;5070973;28;20148;-65
2021/05/16 06:34:11;;;;;;;15.90;11.55;;;10.30;99.90;;;;;;5068936;28;20036;-66
2021/05/16 06:36:37;;;;;;;17.23;11.05;;;10.30;99.90;;;;;;5063508;28;20105;-65
2021/05/16 06:39:04;;;;;;;18.50;11.23;;;10.40;99.90;;;;;;5069105;28;20033;-66
2021/05/16 06:41:30;;;;;;;15.73;10.90;;;10.40;99.90;;;;;;5073421;28;20028;-66
2021/05/16 06:43:56;;;;;;;18.50;11.02;;;10.40;99.90;;;;;;5071047;28;20043;-66
2021/05/16 06:46:21;;;;;;;13.18;9.50;;;10.40;99.90;;;;;;5067500;28;20040;-66
2021/05/16 06:48:49;;;;;;;13.90;9.32;;;10.40;99.90;;;;;;5069381;28;20036;-66
2021/05/16 06:51:15;;;;;;;17.73;9.88;;;10.40;99.90;;;;;;5071753;28;20051;-66
2021/05/16 06:53:41;;;;;;;13.32;9.73;;;10.50;99.90;;;;;;5072372;28;20032;-66
2021/05/16 06:56:08;;;;;;;15.50;9.18;;;10.50;99.90;;;;;;5070767;28;20749;-66
2021/05/16 06:58:36;;;;;;;13.82;9.73;;;10.60;99.90;;;;;;5070856;28;20130;-66
2021/05/16 07:01:04;;;;;;;12.57;9.63;;;10.70;99.90;;;;;;5071752;28;20035;-66
2021/05/16 07:03:31;;;;;;;13.10;9.07;;;10.70;99.90;;;;;;5072081;28;20039;-65
2021/05/16 07:06:01;;;;;;;12.73;8.93;;;10.80;99.90;;;;;;5069193;28;20019;-65
2021/05/16 07:08:29;;;;;;;16.02;10.05;;;10.90;99.90;;;;;;5072135;28;20028;-66
2021/05/16 07:10:55;;;;;;;16.58;10.65;;;10.90;99.90;;;;;;5072572;28;20253;-66
2021/05/16 07:13:20;;;;;;;10.43;8.35;;;10.90;99.90;;;;;;5070838;28;20407;-65
2021/05/16 07:15:49;;;;;;;12.13;7.70;;;10.90;99.90;;;;;;5072030;28;20040;-65
2021/05/16 07:18:14;;;;;;;12.50;8.18;;;10.90;99.90;;;;;;5069882;28;20365;-65
2021/05/16 07:20:40;;;;;;;10.65;6.97;;;10.90;99.90;;;;;;5073735;28;20039;-66
2021/05/16 07:23:08;;;;;;;9.27;7.05;;;11.00;99.90;;;;;;5070845;28;20416;-67
2021/05/16 07:25:36;;;;;;;11.52;7.57;;;11.00;99.90;;;;;;5070694;28;20346;-68
2021/05/16 07:28:03;;;;;;;8.80;6.90;;;11.00;99.90;;;;;;5086346;28;20457;-67
2021/05/16 07:30:29;;;;;;;8.43;5.88;;;11.00;99.90;;;;;;5068308;28;20032;-67
2021/05/16 07:32:55;;;;;;;13.00;6.78;;;11.00;99.90;;;;;;5069508;28;20070;-67
2021/05/16 07:35:20;;;;;;;6.82;5.75;;;11.10;99.90;;;;;;5069813;28;20081;-67
2021/05/16 07:37:49;;;;;;;7.45;5.22;;;11.10;99.90;;;;;;5071130;28;21964;-67
2021/05/16 07:40:17;;;;;;;7.90;4.85;;;11.10;99.90;;;;;;5071258;28;20124;-67
2021/05/16 07:42:45;;;;;;;6.65;4.90;;;11.10;99.90;;;;;;5057315;28;20044;-67
2021/05/16 07:45:11;;;;;;;5.85;4.10;;;11.20;99.90;;;;;;5076164;28;20528;-65
2021/05/16 07:47:39;;;;;;;6.13;4.40;;;11.10;99.90;;;;;;5077588;28;20105;-65
2021/05/16 07:50:05;;;;;;;6.40;4.60;;;11.20;99.90;;;;;;5077888;28;20099;-66
2021/05/16 07:52:33;;;;;;;7.95;4.40;;;11.30;99.90;;;;;;5073477;28;20024;-68
2021/05/16 07:55:01;;;;;;;6.18;4.10;;;11.30;99.90;;;;;;5068829;28;20033;-67
2021/05/16 07:57:27;;;;;;;5.70;4.00;;;11.30;99.90;;;;;;5070084;28;20042;-67
2021/05/16 07:59:53;;;;;;;6.75;4.30;;;11.30;99.90;;;;;;5067934;28;20039;-67
2021/05/16 08:02:21;;;;;;;5.70;4.00;;;11.30;99.90;;;;;;5070140;28;20028;-68
2021/05/16 08:04:49;;;;;;;6.63;4.38;;;11.50;99.90;;;;;;5058444;28;20162;-68
2021/05/16 08:07:17;;;;;;;6.57;4.70;;;11.60;99.90;;;;;;5068085;28;20029;-68
2021/05/16 08:09:44;;;;;;;7.88;4.85;;;11.70;99.90;;;;;;5068789;28;20038;-67
2021/05/16 08:12:09;;;;;;;5.97;4.30;;;11.80;99.90;;;;;;5068521;28;20115;-68
2021/05/16 08:14:37;;;;;;;6.10;3.83;;;11.90;99.90;;;;;;5068265;28;20578;-68
2021/05/16 08:17:06;;;;;;;6.70;4.90;;;12.00;99.90;;;;;;5070239;28;20097;-67
2021/05/16 08:19:34;;;;;;;6.50;4.40;;;12.20;99.90;;;;;;5069536;28;20040;-68
2021/05/16 08:21:59;;;;;;;6.20;4.30;;;12.30;99.90;;;;;;5069627;28;20063;-68
2021/05/16 08:24:27;;;;;;;10.77;5.40;;;12.40;99.90;;;;;;5069586;28;20040;-68
2021/05/16 08:26:55;;;;;;;8.35;4.10;;;12.50;99.90;;;;;;5069822;28;20150;-67
2021/05/16 08:29:21;;;;;;;8.80;5.15;;;12.60;99.90;;;;;;5067503;28;20047;-67
2021/05/16 08:31:47;;;;;;;7.97;4.57;;;12.60;99.90;;;;;;5069375;28;20027;-66
2021/05/16 08:34:12;;;;;;;7.18;5.40;;;12.60;99.90;;;;;;5069193;28;20039;-66
2021/05/16 08:36:42;;;;;;;7.22;4.72;;;12.50;99.90;;;;;;5069156;28;20029;-65
2021/05/16 08:39:10;;;;;;;6.90;4.68;;;12.50;99.90;;;;;;5069656;28;20099;-66
2021/05/16 08:41:36;;;;;;;7.35;4.47;;;12.50;99.90;;;;;;5068901;28;20036;-68
2021/05/16 08:44:05;;;;;;;7.60;4.60;;;12.50;99.90;;;;;;5067190;28;20132;-67
2021/05/16 08:46:30;;;;;;;5.88;4.05;;;12.60;99.90;;;;;;5068458;28;20056;-68
2021/05/16 08:48:59;;;;;;;7.18;4.43;;;12.60;99.90;;;;;;5069146;28;20120;-68
2021/05/16 08:51:24;;;;;;;5.32;3.90;;;12.70;99.90;;;;;;5067400;28;20032;-68
2021/05/16 08:53:50;;;;;;;7.10;4.97;;;12.70;99.90;;;;;;5049116;28;20039;-66
2021/05/16 08:56:18;;;;;;;6.38;4.45;;;12.70;99.90;;;;;;5066276;28;20037;-66
2021/05/16 08:58:47;;;;;;;13.48;8.02;;;12.70;99.90;;;;;;5075795;28;20701;-67
2021/05/16 09:01:25;;;;;;;9.00;4.80;;;12.70;99.90;;;;;;5073315;28;20043;-66
2021/05/16 09:03:51;;;;;;;8.48;4.07;;;12.70;99.90;;;;;;5076863;28;20032;-66
2021/05/16 09:06:17;;;;;;;8.52;3.10;;;12.60;99.90;;;;;;5075126;28;20024;-66
2021/05/16 09:08:43;;;;;;;4.63;2.83;;;12.50;99.90;;;;;;5074545;28;20074;-66
2021/05/16 09:11:09;;;;;;;4.72;2.42;;;12.30;99.90;;;;;;5073487;28;20024;-66
2021/05/16 09:13:41;;;;;;;5.55;2.50;;;12.30;99.90;;;;;;5074855;28;20028;-66
2021/05/16 09:16:18;;;;;;;8.00;2.42;;;12.30;99.90;;;;;;5081397;28;20036;-65
2021/05/16 09:18:55;;;;;;;7.65;2.75;;;12.20;99.90;;;;;;5067333;28;20036;-66
2021/05/16 09:21:29;;;;;;;8.70;2.47;;;12.20;99.90;;;;;;5074582;28;20598;-67
2021/05/16 09:24:07;;;;;;;11.80;7.15;;;12.10;99.90;;;;;;5081518;28;20055;-66
2021/05/16 09:26:58;;;;;;;7.43;3.20;;;12.20;99.90;;;;;;5076721;28;20074;-66
2021/05/16 09:29:29;;;;;;;5.25;2.38;;;12.30;99.90;;;;;;5072745;28;20020;-65
2021/05/16 09:32:00;;;;;;;5.95;3.10;;;12.60;99.90;;;;;;5074613;28;20028;-66
2021/05/16 09:34:25;;;;;;;5.65;2.80;;;12.70;99.90;;;;;;5076072;28;20036;-66
2021/05/16 09:36:51;;;;;;;5.18;2.63;;;12.90;99.90;;;;;;5076231;28;20043;-66
2021/05/16 09:39:18;;;;;;;5.97;2.70;;;13.20;99.90;;;;;;5075579;28;20373;-66
2021/05/16 09:42:03;;;;;;;5.25;2.47;;;13.50;99.90;;;;;;5075548;28;20109;-66
2021/05/16 09:44:41;;;;;;;7.55;2.50;;;13.60;99.90;;;;;;5073656;28;20043;-66
2021/05/16 09:47:14;;;;;;;5.97;2.53;;;13.70;99.90;;;;;;5075223;28;20034;-66
2021/05/16 09:50:02;;;;;;;7.32;2.65;;;13.80;99.90;;;;;;5077309;28;20025;-66
2021/05/16 09:52:34;;;;;;;6.55;2.60;;;13.70;99.90;;;;;;5078355;28;20024;-66
2021/05/16 09:55:02;;;;;;;8.85;2.85;;;13.70;99.90;;;;;;4371782;28;10001192;-66
2021/05/16 09:57:34;;;;;;;6.47;2.40;;;13.80;99.90;;;;;;5072056;28;20107;-66
2021/05/16 10:00:03;;;;;;;5.30;2.33;;;13.80;99.90;;;;;;5077227;28;20085;-67
2021/05/16 10:02:31;;;;;;;5.80;2.20;;;13.80;99.90;;;;;;5062557;28;20111;-66
2021/05/16 10:04:59;;;;;;;5.88;2.30;;;13.70;99.90;;;;;;5074454;28;20097;-66
2021/05/16 10:07:25;;;;;;;6.38;2.50;;;13.70;99.90;;;;;;5055509;28;20024;-66
2021/05/16 10:09:57;;;;;;;5.93;2.67;;;13.80;99.90;;;;;;5074553;28;20024;-66
2021/05/16 10:12:22;;;;;;;6.55;2.38;;;13.90;99.90;;;;;;5056181;28;20489;-66
2021/05/16 10:14:51;;;;;;;6.13;1.90;;;14.00;99.90;;;;;;5072198;28;20115;-67
2021/05/16 10:17:19;;;;;;;7.30;2.20;;;14.10;99.90;;;;;;5072687;28;20078;-66
2021/05/16 10:19:45;;;;;;;6.20;2.25;;;14.30;99.90;;;;;;5055862;28;20081;-67
2021/05/16 10:22:18;;;;;;;6.70;2.35;;;14.30;99.90;;;;;;5070578;28;20040;-67
2021/05/16 10:24:50;;;;;;;6.95;2.22;;;14.50;99.90;;;;;;5072196;28;20638;-66
2021/05/16 10:27:25;;;;;;;5.85;1.90;;;14.80;99.90;;;;;;5073974;28;20028;-66
2021/05/16 10:30:04;;;;;;;5.22;1.95;;;14.80;99.90;;;;;;5075297;28;20055;-66
2021/05/16 10:32:37;;;;;;;5.90;1.90;;;14.80;99.90;;;;;;5076617;28;20025;-66
2021/05/16 10:35:04;;;;;;;4.82;1.83;;;14.70;99.90;;;;;;5076898;28;20061;-66
2021/05/16 10:37:39;;;;;;;4.57;1.75;;;14.50;99.90;;;;;;5058043;28;20496;-66
2021/05/16 10:40:22;;;;;;;5.88;1.80;;;14.60;99.90;;;;;;5078147;28;20059;-66
2021/05/16 10:42:48;;;;;;;6.13;1.60;;;14.50;99.90;;;;;;5078600;28;20071;-66
2021/05/16 10:45:33;;;;;;;5.93;1.80;;;14.60;99.90;;;;;;5073237;28;20056;-66
2021/05/16 10:48:17;;;;;;;4.72;1.60;;;14.70;99.90;;;;;;5069465;28;20034;-67
2021/05/16 10:50:57;;;;;;;7.18;2.05;;;14.80;99.90;;;;;;5077105;28;20103;-66
2021/05/16 10:53:28;;;;;;;5.55;1.80;;;14.90;99.90;;;;;;5076685;28;20024;-67
2021/05/16 10:56:07;;;;;;;4.88;1.80;;;14.90;99.90;;;;;;5075065;28;20071;-66
2021/05/16 10:58:37;;;;;;;5.75;1.75;;;14.90;99.90;;;;;;5076994;28;20032;-66
2021/05/16 11:01:11;;;;;;;5.82;1.80;;;14.80;99.90;;;;;;5091882;27;20586;-66
2021/05/16 11:03:53;;;;;;;6.45;1.92;;;14.80;99.90;;;;;;5076832;28;20035;-66
2021/05/16 11:06:31;;;;;;;8.38;3.92;;;14.80;99.90;;;;;;5075204;28;20055;-66
2021/05/16 11:08:56;;;;;;;4.93;1.90;;;14.90;99.90;;;;;;5075984;28;20125;-66
2021/05/16 11:11:27;;;;;;;7.85;1.98;;;15.00;99.90;;;;;;5078651;28;20036;-66
2021/05/16 11:13:55;;;;;;;5.07;1.77;;;15.00;99.90;;;;;;5066068;28;20066;-66
2021/05/16 11:16:23;;;;;;;4.38;1.80;;;15.10;99.90;;;;;;5066235;28;20040;-66
2021/05/16 11:18:54;;;;;;;5.32;1.80;;;15.20;99.90;;;;;;5074894;28;20054;-66
2021/05/16 11:21:23;;;;;;;6.28;1.98;;;15.20;99.90;;;;;;5076522;28;20673;-66
2021/05/16 11:23:52;;;;;;;5.18;1.95;;;15.20;99.90;;;;;;5052747;28;20037;-66
2021/05/16 11:26:21;;;;;;;7.07;2.13;;;15.20;99.90;;;;;;5054861;28;20506;-66
2021/05/16 11:28:50;;;;;;;3.80;1.50;;;15.20;99.90;;;;;;5054327;28;20080;-66
2021/05/16 11:31:20;;;;;;;5.15;1.52;;;15.30;99.90;;;;;;5055316;28;20319;-66
2021/05/16 11:33:55;;;;;;;6.90;2.20;;;15.30;99.90;;;;;;5054544;28;20054;-66
2021/05/16 11:36:32;;;;;;;4.88;1.75;;;15.20;99.90;;;;;;5053043;28;20135;-66
2021/05/16 11:39:00;;;;;;;6.82;2.00;;;15.30;99.90;;;;;;5039419;28;20043;-66
2021/05/16 11:41:39;;;;;;;6.28;1.83;;;15.40;95.40;;;;;;5053366;28;20540;-66
2021/05/16 11:44:12;;;;;;;5.97;1.90;;;15.60;99.90;;;;;;5053307;28;20042;-67
2021/05/16 11:46:44;;;;;;;5.65;2.00;;;15.80;99.90;;;;;;5054883;28;20035;-66
2021/05/16 11:49:23;;;;;;;5.85;1.75;;;16.00;98.20;;;;;;5055190;28;20052;-66
2021/05/16 11:51:51;;;;;;;4.50;1.60;;;15.90;98.40;;;;;;5057336;28;20103;-66
2021/05/16 11:54:17;;;;;;;15.57;10.38;;;16.00;94.90;;;;;;5054886;28;20033;-66
2021/05/16 11:56:45;;;;;;;6.82;1.95;;;16.10;99.90;;;;;;5054339;28;20289;-66
2021/05/16 11:59:11;;;;;;;5.70;1.77;;;16.10;95.90;;;;;;5055868;28;20095;-66
2021/05/16 12:01:40;;;;;;;6.30;1.80;;;15.90;93.90;;;;;;5053289;28;20718;-66
2021/05/16 12:04:12;;;;;;;5.35;1.67;;;15.70;94.50;;;;;;5054870;28;20020;-66
2021/05/16 12:06:43;;;;;;;;;;;15.60;96.80;;;;;;5055068;28;20042;-66
2021/05/16 12:09:14;;;;;;;5.13;1.70;;;15.20;99.10;;;;;;5054313;28;19908;-66
2021/05/16 12:11:45;;;;;;;6.03;1.67;;;15.10;99.90;;;;;;5051015;28;20036;-66
2021/05/16 12:14:11;;;;;;;4.95;1.88;;;15.10;99.90;;;;;;5055170;28;20040;-66
2021/05/16 12:16:38;;;;;;;9.55;4.70;;;15.30;99.90;;;;;;5062055;28;20048;-66
2021/05/16 12:19:04;;;;;;;6.18;1.98;;;15.40;99.90;;;;;;5053394;28;20075;-66
2021/05/16 12:21:35;;;;;;;5.13;1.70;;;15.70;99.90;;;;;;5054144;28;20068;-65
2021/05/16 12:24:11;;;;;;;5.97;2.40;;;15.90;99.90;;;;;;5073676;28;20663;-65
2021/05/16 12:26:39;;;;;;;7.65;3.08;;;16.10;99.90;;;;;;5079482;28;20469;-66
2021/05/16 12:29:07;;;;;;;5.38;1.85;;;16.40;99.90;;;;;;5073596;28;20032;-66
2021/05/16 12:31:35;;;;;;;7.20;1.83;;;16.50;99.90;;;;;;5073139;28;20020;-66
2021/05/16 12:34:04;;;;;;;6.97;1.80;;;16.80;99.90;;;;;;5072894;28;20028;-67
2021/05/16 12:36:47;;;;;;;6.95;2.42;;;16.80;92.30;;;;;;5075495;28;20036;-66
2021/05/16 12:39:53;;;;;;;4.65;1.60;;;17.20;98.30;;;;;;5071412;28;20692;-66
2021/05/16 12:42:31;;;;;;;4.70;1.70;;;17.20;89.30;;;;;;4995517;28;20629;-66
2021/05/16 12:45:13;;;;;;;5.85;1.70;;;17.50;83.50;;;;;;4995243;28;20018;-66
2021/05/16 12:47:41;;;;;;;4.65;1.38;;;17.60;86.00;;;;;;4993173;28;20168;-66
2021/05/16 12:50:10;;;;;;;4.70;1.98;;;17.70;93.30;;;;;;4986547;28;20037;-66